sensor_id;sensor_type;location;lat;lon;timestamp;pressure;altitude;pressure_sealevel;temperature;humidity
48244;BME280;34053;51.088;6.572;2023-02-01T00:00:40;101495.31;;;5.82;91.21
48244;BME280;34053;51.088;6.572;2023-02-01T00:03:10;101500.47;;;5.79;91.06
48244;BME280;34053;51.088;6.572;2023-02-01T00:05:42;101502.19;;;5.74;90.89
48244;BME280;34053;51.088;6.572;2023-02-01T00:08:13;101500.50;;;5.82;91.13
48244;BME280;34053;51.088;6.572;2023-02-01T00:10:43;101505.72;;;5.82;90.02
48244;BME280;34053;51.088;6.572;2023-02-01T00:13:14;101509.19;;;5.81;89.81
48244;BME280;34053;51.088;6.572;2023-02-01T00:15:44;101508.28;;;5.74;90.00
48244;BME280;34053;51.088;6.572;2023-02-01T00:18:15;101503.09;;;5.79;88.30
48244;BME280;34053;51.088;6.572;2023-02-01T00:20:46;101505.66;;;5.76;87.97
48244;BME280;34053;51.088;6.572;2023-02-01T00:23:17;101500.44;;;5.76;87.96
48244;BME280;34053;51.088;6.572;2023-02-01T00:25:47;101488.34;;;5.81;87.87
48244;BME280;34053;51.088;6.572;2023-02-01T00:28:18;101482.22;;;5.76;86.88
48244;BME280;34053;51.088;6.572;2023-02-01T00:30:56;101495.22;;;5.70;85.38
48244;BME280;34053;51.088;6.572;2023-02-01T00:33:27;101491.69;;;5.61;85.07
48244;BME280;34053;51.088;6.572;2023-02-01T00:36:06;101493.50;;;5.72;85.62
48244;BME280;34053;51.088;6.572;2023-02-01T00:38:38;101503.91;;;5.65;83.94
48244;BME280;34053;51.088;6.572;2023-02-01T00:41:17;101498.72;;;5.70;83.76
48244;BME280;34053;51.088;6.572;2023-02-01T00:43:48;101494.34;;;5.66;82.96
48244;BME280;34053;51.088;6.572;2023-02-01T00:46:20;101484.75;;;5.59;82.13
48244;BME280;34053;51.088;6.572;2023-02-01T00:48:51;101481.28;;;5.61;82.93
48244;BME280;34053;51.088;6.572;2023-02-01T00:51:24;101475.22;;;5.64;82.34
48244;BME280;34053;51.088;6.572;2023-02-01T00:53:55;101463.94;;;5.57;81.80
48244;BME280;34053;51.088;6.572;2023-02-01T00:56:26;101450.03;;;5.55;80.31
48244;BME280;34053;51.088;6.572;2023-02-01T00:58:59;101459.50;;;5.42;79.33
48244;BME280;34053;51.088;6.572;2023-02-01T01:01:30;101445.56;;;5.34;79.46
48244;BME280;34053;51.088;6.572;2023-02-01T01:04:00;101442.94;;;5.29;79.64
48244;BME280;34053;51.088;6.572;2023-02-01T01:06:33;101451.63;;;5.33;80.44
48244;BME280;34053;51.088;6.572;2023-02-01T01:09:05;101461.22;;;5.37;79.94
48244;BME280;34053;51.088;6.572;2023-02-01T01:11:37;101467.25;;;5.31;80.24
48244;BME280;34053;51.088;6.572;2023-02-01T01:14:09;101464.63;;;5.31;80.02
48244;BME280;34053;51.088;6.572;2023-02-01T01:16:40;101471.56;;;5.29;79.45
48244;BME280;34053;51.088;6.572;2023-02-01T01:19:10;101469.81;;;5.27;80.27
48244;BME280;34053;51.088;6.572;2023-02-01T01:21:41;101477.56;;;5.25;79.80
48244;BME280;34053;51.088;6.572;2023-02-01T01:24:12;101482.78;;;5.22;80.16
48244;BME280;34053;51.088;6.572;2023-02-01T01:26:42;101490.63;;;5.27;80.59
48244;BME280;34053;51.088;6.572;2023-02-01T01:29:13;101486.28;;;5.27;79.99
48244;BME280;34053;51.088;6.572;2023-02-01T01:31:43;101489.66;;;5.17;79.46
48244;BME280;34053;51.088;6.572;2023-02-01T01:34:14;101492.34;;;5.25;79.99
48244;BME280;34053;51.088;6.572;2023-02-01T01:36:44;101494.88;;;5.17;79.17
48244;BME280;34053;51.088;6.572;2023-02-01T01:39:15;101485.34;;;5.16;80.29
48244;BME280;34053;51.088;6.572;2023-02-01T01:41:45;101482.59;;;5.00;80.08
48244;BME280;34053;51.088;6.572;2023-02-01T01:47:26;101487.00;;;5.09;80.26
48244;BME280;34053;51.088;6.572;2023-02-01T01:49:58;101476.66;;;5.14;80.13
48244;BME280;34053;51.088;6.572;2023-02-01T01:52:28;101472.34;;;5.16;79.76
48244;BME280;34053;51.088;6.572;2023-02-01T01:54:59;101468.81;;;5.11;80.63
48244;BME280;34053;51.088;6.572;2023-02-01T01:57:33;101458.41;;;5.11;79.93
48244;BME280;34053;51.088;6.572;2023-02-01T02:00:09;101459.25;;;5.08;80.22
48244;BME280;34053;51.088;6.572;2023-02-01T02:02:43;101457.53;;;5.10;80.35
48244;BME280;34053;51.088;6.572;2023-02-01T02:05:16;101455.75;;;5.03;80.41
48244;BME280;34053;51.088;6.572;2023-02-01T02:07:48;101454.09;;;5.11;80.29
48244;BME280;34053;51.088;6.572;2023-02-01T02:10:19;101460.97;;;5.04;80.36
48244;BME280;34053;51.088;6.572;2023-02-01T02:12:50;101459.22;;;5.05;80.35
48244;BME280;34053;51.088;6.572;2023-02-01T02:15:20;101453.97;;;5.00;80.85
48244;BME280;34053;51.088;6.572;2023-02-01T02:18:01;101447.97;;;5.04;80.33
48244;BME280;34053;51.088;6.572;2023-02-01T02:23:48;101440.16;;;5.03;81.00
48244;BME280;34053;51.088;6.572;2023-02-01T02:40:33;101439.31;;;5.07;81.80
48244;BME280;34053;51.088;6.572;2023-02-01T02:43:14;101440.19;;;5.11;81.82
48244;BME280;34053;51.088;6.572;2023-02-01T02:46:12;101429.84;;;5.18;81.20
48244;BME280;34053;51.088;6.572;2023-02-01T02:49:29;101421.13;;;5.12;82.06
48244;BME280;34053;51.088;6.572;2023-02-01T02:52:09;101414.22;;;5.12;81.61
48244;BME280;34053;51.088;6.572;2023-02-01T02:55:02;101409.00;;;5.12;82.31
48244;BME280;34053;51.088;6.572;2023-02-01T02:57:37;101422.88;;;5.13;82.15
48244;BME280;34053;51.088;6.572;2023-02-01T03:00:31;101415.97;;;5.18;82.52
48244;BME280;34053;51.088;6.572;2023-02-01T03:03:21;101422.00;;;5.14;82.67
48244;BME280;34053;51.088;6.572;2023-02-01T03:06:16;101422.06;;;5.20;82.47
48244;BME280;34053;51.088;6.572;2023-02-01T03:08:48;101417.69;;;5.19;82.70
48244;BME280;34053;51.088;6.572;2023-02-01T03:11:24;101415.13;;;5.20;82.83
48244;BME280;34053;51.088;6.572;2023-02-01T03:14:15;101423.81;;;5.26;83.07
48244;BME280;34053;51.088;6.572;2023-02-01T03:16:50;101419.50;;;5.31;82.46
48244;BME280;34053;51.088;6.572;2023-02-01T03:19:26;101413.41;;;5.24;82.43
48244;BME280;34053;51.088;6.572;2023-02-01T03:22:05;101413.34;;;5.16;81.85
48244;BME280;34053;51.088;6.572;2023-02-01T03:24:52;101407.25;;;5.13;81.70
48244;BME280;34053;51.088;6.572;2023-02-01T03:27:32;101407.28;;;5.17;81.25
48244;BME280;34053;51.088;6.572;2023-02-01T03:30:24;101421.19;;;5.21;81.14
48244;BME280;34053;51.088;6.572;2023-02-01T03:32:58;101399.53;;;5.22;80.49
48244;BME280;34053;51.088;6.572;2023-02-01T03:36:28;101405.59;;;5.23;80.40
48244;BME280;34053;51.088;6.572;2023-02-01T03:41:44;101402.97;;;5.21;80.63
48244;BME280;34053;51.088;6.572;2023-02-01T03:44:24;101398.69;;;5.28;80.41
48244;BME280;34053;51.088;6.572;2023-02-01T03:47:03;101397.81;;;5.27;80.13
48244;BME280;34053;51.088;6.572;2023-02-01T03:49:43;101384.78;;;5.24;79.84
48244;BME280;34053;51.088;6.572;2023-02-01T03:52:22;101396.03;;;5.18;80.25
48244;BME280;34053;51.088;6.572;2023-02-01T03:54:56;101389.13;;;5.20;79.93
48244;BME280;34053;51.088;6.572;2023-02-01T03:57:33;101401.25;;;5.26;79.87
48244;BME280;34053;51.088;6.572;2023-02-01T04:00:08;101396.94;;;5.28;80.33
48244;BME280;34053;51.088;6.572;2023-02-01T04:02:38;101403.03;;;5.30;80.56
48244;BME280;34053;51.088;6.572;2023-02-01T04:05:09;101403.00;;;5.24;79.65
48244;BME280;34053;51.088;6.572;2023-02-01T04:07:40;101413.38;;;5.21;80.00
48244;BME280;34053;51.088;6.572;2023-02-01T04:10:11;101405.59;;;5.19;80.47
48244;BME280;34053;51.088;6.572;2023-02-01T04:12:42;101393.44;;;5.20;80.15
48244;BME280;34053;51.088;6.572;2023-02-01T04:15:12;101393.47;;;5.25;79.27
48244;BME280;34053;51.088;6.572;2023-02-01T04:17:43;101408.19;;;5.21;79.64
48244;BME280;34053;51.088;6.572;2023-02-01T04:20:13;101402.13;;;5.24;79.38
48244;BME280;34053;51.088;6.572;2023-02-01T04:22:44;101391.72;;;5.25;79.09
48244;BME280;34053;51.088;6.572;2023-02-01T04:25:14;101390.81;;;5.14;78.96
48244;BME280;34053;51.088;6.572;2023-02-01T04:27:47;101389.91;;;5.10;78.62
48244;BME280;34053;51.088;6.572;2023-02-01T04:30:18;101388.16;;;5.09;78.75
48244;BME280;34053;51.088;6.572;2023-02-01T04:32:48;101388.16;;;5.09;79.20
48244;BME280;34053;51.088;6.572;2023-02-01T04:35:18;101372.56;;;5.09;78.71
48244;BME280;34053;51.088;6.572;2023-02-01T04:37:49;101366.47;;;5.09;78.68
48244;BME280;34053;51.088;6.572;2023-02-01T04:40:19;101369.03;;;4.99;78.95
48244;BME280;34053;51.088;6.572;2023-02-01T04:42:50;101359.53;;;5.03;78.53
48244;BME280;34053;51.088;6.572;2023-02-01T04:45:20;101369.97;;;5.08;78.51
48244;BME280;34053;51.088;6.572;2023-02-01T04:47:51;101374.25;;;4.99;78.70
48244;BME280;34053;51.088;6.572;2023-02-01T04:50:22;101366.44;;;4.99;79.09
48244;BME280;34053;51.088;6.572;2023-02-01T04:52:53;101360.28;;;4.89;79.18
48244;BME280;34053;51.088;6.572;2023-02-01T04:55:24;101364.63;;;4.89;78.93
48244;BME280;34053;51.088;6.572;2023-02-01T04:57:54;101363.81;;;4.98;79.19
48244;BME280;34053;51.088;6.572;2023-02-01T05:00:25;101363.78;;;4.93;78.75
48244;BME280;34053;51.088;6.572;2023-02-01T05:02:56;101362.91;;;4.91;78.55
48244;BME280;34053;51.088;6.572;2023-02-01T05:05:27;101368.16;;;4.97;78.90
48244;BME280;34053;51.088;6.572;2023-02-01T05:07:57;101375.09;;;4.98;78.29
48244;BME280;34053;51.088;6.572;2023-02-01T05:10:28;101373.31;;;4.91;78.24
48244;BME280;34053;51.088;6.572;2023-02-01T05:12:58;101376.81;;;4.96;78.58
48244;BME280;34053;51.088;6.572;2023-02-01T05:15:47;101390.66;;;4.95;77.99
48244;BME280;34053;51.088;6.572;2023-02-01T05:18:18;101390.63;;;4.92;78.70
48244;BME280;34053;51.088;6.572;2023-02-01T05:20:48;101392.38;;;4.90;78.98
48244;BME280;34053;51.088;6.572;2023-02-01T05:23:19;101392.38;;;4.93;79.09
48244;BME280;34053;51.088;6.572;2023-02-01T05:25:49;101397.53;;;4.85;78.55
48244;BME280;34053;51.088;6.572;2023-02-01T05:28:20;101401.94;;;4.94;78.10
48244;BME280;34053;51.088;6.572;2023-02-01T05:30:50;101386.25;;;4.85;78.34
48244;BME280;34053;51.088;6.572;2023-02-01T05:33:21;101390.63;;;4.87;78.36
48244;BME280;34053;51.088;6.572;2023-02-01T05:35:51;101392.31;;;4.84;78.26
48244;BME280;34053;51.088;6.572;2023-02-01T05:38:21;101383.66;;;4.82;78.05
48244;BME280;34053;51.088;6.572;2023-02-01T05:40:52;101381.00;;;4.77;78.22
48244;BME280;34053;51.088;6.572;2023-02-01T05:43:22;101370.63;;;4.79;77.73
48244;BME280;34053;51.088;6.572;2023-02-01T05:45:53;101363.66;;;4.76;78.33
48244;BME280;34053;51.088;6.572;2023-02-01T05:48:23;101365.41;;;4.80;78.01
48244;BME280;34053;51.088;6.572;2023-02-01T05:50:54;101375.00;;;4.86;77.74
48244;BME280;34053;51.088;6.572;2023-02-01T05:53:24;101382.75;;;4.78;78.21
48244;BME280;34053;51.088;6.572;2023-02-01T05:55:55;101380.16;;;4.78;78.15
48244;BME280;34053;51.088;6.572;2023-02-01T05:58:25;101379.31;;;4.79;78.36
48244;BME280;34053;51.088;6.572;2023-02-01T06:00:59;101382.72;;;4.73;77.65
48244;BME280;34053;51.088;6.572;2023-02-01T06:03:30;101377.50;;;4.70;78.10
48244;BME280;34053;51.088;6.572;2023-02-01T06:06:00;101381.06;;;4.82;78.18
48244;BME280;34053;51.088;6.572;2023-02-01T06:08:31;101391.41;;;4.79;78.29
48244;BME280;34053;51.088;6.572;2023-02-01T06:11:05;101387.97;;;4.81;77.37
48244;BME280;34053;51.088;6.572;2023-02-01T06:13:36;101387.06;;;4.75;78.08
48244;BME280;34053;51.088;6.572;2023-02-01T06:16:08;101388.75;;;4.69;78.09
48244;BME280;34053;51.088;6.572;2023-02-01T06:18:39;101386.09;;;4.65;78.19
48244;BME280;34053;51.088;6.572;2023-02-01T06:21:09;101396.50;;;4.63;78.69
48244;BME280;34053;51.088;6.572;2023-02-01T06:23:40;101397.47;;;4.76;78.23
48244;BME280;34053;51.088;6.572;2023-02-01T06:26:10;101395.72;;;4.77;78.39
48244;BME280;34053;51.088;6.572;2023-02-01T06:28:41;101393.16;;;4.78;78.27
48244;BME280;34053;51.088;6.572;2023-02-01T06:31:11;101393.91;;;4.65;78.40
48244;BME280;34053;51.088;6.572;2023-02-01T06:33:42;101393.94;;;4.69;78.57
48244;BME280;34053;51.088;6.572;2023-02-01T06:36:13;101393.94;;;4.68;78.64
48244;BME280;34053;51.088;6.572;2023-02-01T06:38:44;101394.78;;;4.68;78.37
48244;BME280;34053;51.088;6.572;2023-02-01T06:41:15;101399.13;;;4.69;78.70
48244;BME280;34053;51.088;6.572;2023-02-01T06:43:46;101402.59;;;4.68;78.52
48244;BME280;34053;51.088;6.572;2023-02-01T06:46:17;101409.53;;;4.69;79.12
48244;BME280;34053;51.088;6.572;2023-02-01T06:48:47;101402.59;;;4.65;79.00
48244;BME280;34053;51.088;6.572;2023-02-01T06:51:21;101405.22;;;4.73;79.26
48244;BME280;34053;51.088;6.572;2023-02-01T06:53:52;101403.53;;;4.73;78.68
48244;BME280;34053;51.088;6.572;2023-02-01T06:56:23;101395.72;;;4.75;78.58
48244;BME280;34053;51.088;6.572;2023-02-01T06:58:54;101399.13;;;4.69;79.43
48244;BME280;34053;51.088;6.572;2023-02-01T07:01:24;101406.97;;;4.72;78.79
48244;BME280;34053;51.088;6.572;2023-02-01T07:03:55;101403.53;;;4.77;79.13
48244;BME280;34053;51.088;6.572;2023-02-01T07:06:25;101405.22;;;4.71;79.11
48244;BME280;34053;51.088;6.572;2023-02-01T07:08:57;101412.22;;;4.80;79.16
48244;BME280;34053;51.088;6.572;2023-02-01T07:11:27;101415.66;;;4.76;78.90
48244;BME280;34053;51.088;6.572;2023-02-01T07:13:58;101416.53;;;4.77;78.89
48244;BME280;34053;51.088;6.572;2023-02-01T07:16:29;101425.19;;;4.76;79.06
48244;BME280;34053;51.088;6.572;2023-02-01T07:19:01;101429.53;;;4.77;79.40
48244;BME280;34053;51.088;6.572;2023-02-01T07:21:32;101434.72;;;4.75;79.13
48244;BME280;34053;51.088;6.572;2023-02-01T07:24:02;101424.38;;;4.81;79.29
48244;BME280;34053;51.088;6.572;2023-02-01T07:26:33;101424.38;;;4.80;78.87
48244;BME280;34053;51.088;6.572;2023-02-01T07:29:03;101427.81;;;4.79;79.45
48244;BME280;34053;51.088;6.572;2023-02-01T07:31:34;101426.94;;;4.77;79.06
48244;BME280;34053;51.088;6.572;2023-02-01T07:34:04;101431.31;;;4.79;79.24
48244;BME280;34053;51.088;6.572;2023-02-01T07:36:35;101416.53;;;4.77;78.83
48244;BME280;34053;51.088;6.572;2023-02-01T07:39:06;101424.38;;;4.78;78.99
48244;BME280;34053;51.088;6.572;2023-02-01T07:41:37;101421.81;;;4.86;79.41
48244;BME280;34053;51.088;6.572;2023-02-01T07:44:07;101430.47;;;4.82;79.43
48244;BME280;34053;51.088;6.572;2023-02-01T07:46:37;101414.84;;;4.82;79.21
48244;BME280;34053;51.088;6.572;2023-02-01T07:49:09;101425.19;;;4.74;79.30
48244;BME280;34053;51.088;6.572;2023-02-01T07:51:39;101429.53;;;4.73;79.35
48244;BME280;34053;51.088;6.572;2023-02-01T07:54:10;101435.59;;;4.76;79.60
48244;BME280;34053;51.088;6.572;2023-02-01T07:56:40;101437.31;;;4.77;79.33
48244;BME280;34053;51.088;6.572;2023-02-01T07:59:11;101439.06;;;4.75;79.24
48244;BME280;34053;51.088;6.572;2023-02-01T08:01:42;101449.47;;;4.78;79.22
48244;BME280;34053;51.088;6.572;2023-02-01T08:04:12;101445.19;;;4.83;79.18
48244;BME280;34053;51.088;6.572;2023-02-01T08:06:43;101430.47;;;4.85;79.35
48244;BME280;34053;51.088;6.572;2023-02-01T08:09:13;101426.91;;;4.73;79.44
48244;BME280;34053;51.088;6.572;2023-02-01T08:11:45;101433.88;;;4.78;79.31
48244;BME280;34053;51.088;6.572;2023-02-01T08:14:15;101433.88;;;4.75;79.99
48244;BME280;34053;51.088;6.572;2023-02-01T08:16:45;101431.28;;;4.75;79.44
48244;BME280;34053;51.088;6.572;2023-02-01T08:19:16;101442.53;;;4.77;79.57
48244;BME280;34053;51.088;6.572;2023-02-01T08:21:46;101442.53;;;4.73;79.85
48244;BME280;34053;51.088;6.572;2023-02-01T08:24:18;101446.03;;;4.79;80.05
48244;BME280;34053;51.088;6.572;2023-02-01T08:26:49;101451.22;;;4.79;79.29
48244;BME280;34053;51.088;6.572;2023-02-01T08:29:19;101466.84;;;4.82;79.54
48244;BME280;34053;51.088;6.572;2023-02-01T08:31:50;101459.91;;;4.84;79.48
48244;BME280;34053;51.088;6.572;2023-02-01T08:34:20;101461.69;;;4.88;79.23
48244;BME280;34053;51.088;6.572;2023-02-01T08:36:52;101472.09;;;4.88;79.35
48244;BME280;34053;51.088;6.572;2023-02-01T08:39:27;101484.28;;;4.95;79.41
48244;BME280;34053;51.088;6.572;2023-02-01T08:41:57;101476.50;;;4.94;79.31
48244;BME280;34053;51.088;6.572;2023-02-01T08:44:47;101482.56;;;4.94;79.31
48244;BME280;34053;51.088;6.572;2023-02-01T08:47:17;101489.47;;;4.91;79.31
48244;BME280;34053;51.088;6.572;2023-02-01T08:49:47;101489.50;;;4.97;79.16
48244;BME280;34053;51.088;6.572;2023-02-01T08:52:18;101498.16;;;4.94;78.65
48244;BME280;34053;51.088;6.572;2023-02-01T08:54:49;101501.66;;;4.98;78.94
48244;BME280;34053;51.088;6.572;2023-02-01T08:57:19;101498.19;;;4.97;79.12
48244;BME280;34053;51.088;6.572;2023-02-01T08:59:50;101483.47;;;4.99;78.85
48244;BME280;34053;51.088;6.572;2023-02-01T09:02:20;101480.91;;;5.04;78.74
48244;BME280;34053;51.088;6.572;2023-02-01T09:04:51;101482.72;;;5.13;78.90
48244;BME280;34053;51.088;6.572;2023-02-01T09:07:22;101487.88;;;5.07;78.36
48244;BME280;34053;51.088;6.572;2023-02-01T09:09:52;101480.00;;;4.97;78.45
48244;BME280;34053;51.088;6.572;2023-02-01T09:12:27;101470.47;;;4.99;78.94
48244;BME280;34053;51.088;6.572;2023-02-01T09:14:58;101461.81;;;5.03;79.00
48244;BME280;34053;51.088;6.572;2023-02-01T09:17:29;101471.34;;;4.98;78.72
48244;BME280;34053;51.088;6.572;2023-02-01T09:20:00;101464.38;;;5.00;78.98
48244;BME280;34053;51.088;6.572;2023-02-01T09:22:31;101464.38;;;4.99;78.84
48244;BME280;34053;51.088;6.572;2023-02-01T09:25:01;101469.66;;;5.10;78.97
48244;BME280;34053;51.088;6.572;2023-02-01T09:27:32;101461.00;;;5.09;78.56
48244;BME280;34053;51.088;6.572;2023-02-01T09:30:03;101474.00;;;5.11;78.49
48244;BME280;34053;51.088;6.572;2023-02-01T09:32:35;101461.84;;;5.10;78.70
48244;BME280;34053;51.088;6.572;2023-02-01T09:35:06;101454.06;;;5.08;78.07
48244;BME280;34053;51.088;6.572;2023-02-01T09:37:36;101469.69;;;5.13;78.41
48244;BME280;34053;51.088;6.572;2023-02-01T09:40:13;101476.63;;;5.11;78.61
48244;BME280;34053;51.088;6.572;2023-02-01T09:42:47;101462.75;;;5.13;78.94
48244;BME280;34053;51.088;6.572;2023-02-01T09:45:43;101474.91;;;5.11;78.45
48244;BME280;34053;51.088;6.572;2023-02-01T09:48:21;101466.25;;;5.17;78.11
48244;BME280;34053;51.088;6.572;2023-02-01T09:50:56;101467.13;;;5.19;78.50
48244;BME280;34053;51.088;6.572;2023-02-01T09:53:46;101473.19;;;5.18;78.04
48244;BME280;34053;51.088;6.572;2023-02-01T09:56:26;101477.53;;;5.16;78.16
48244;BME280;34053;51.088;6.572;2023-02-01T10:01:55;101461.06;;;5.22;78.30
48244;BME280;34053;51.088;6.572;2023-02-01T10:04:26;101448.09;;;5.26;78.74
48244;BME280;34053;51.088;6.572;2023-02-01T10:07:49;101454.19;;;5.30;78.49
48244;BME280;34053;51.088;6.572;2023-02-01T10:10:11;101452.47;;;5.29;78.25
48244;BME280;34053;51.088;6.572;2023-02-01T10:18:25;101444.69;;;5.35;77.53
48244;BME280;34053;51.088;6.572;2023-02-01T10:27:10;101432.59;;;5.46;77.76
48244;BME280;34053;51.088;6.572;2023-02-01T10:29:44;101431.75;;;5.46;77.74
48244;BME280;34053;51.088;6.572;2023-02-01T10:32:21;101435.22;;;5.51;77.84
48244;BME280;34053;51.088;6.572;2023-02-01T10:34:57;101457.84;;;5.57;77.95
48244;BME280;34053;51.088;6.572;2023-02-01T10:37:31;101452.63;;;5.55;77.59
48244;BME280;34053;51.088;6.572;2023-02-01T10:42:47;101443.13;;;5.65;77.22
48244;BME280;34053;51.088;6.572;2023-02-01T10:45:21;101430.13;;;5.68;76.91
48244;BME280;34053;51.088;6.572;2023-02-01T10:47:55;101431.00;;;5.75;76.94
48244;BME280;34053;51.088;6.572;2023-02-01T10:50:46;101431.03;;;5.78;77.27
48244;BME280;34053;51.088;6.572;2023-02-01T10:53:25;101436.25;;;5.82;76.91
48244;BME280;34053;51.088;6.572;2023-02-01T10:55:56;101430.22;;;5.87;76.39
48244;BME280;34053;51.088;6.572;2023-02-01T10:58:28;101441.50;;;5.90;76.89
48244;BME280;34053;51.088;6.572;2023-02-01T11:01:06;101425.88;;;5.93;76.61
48244;BME280;34053;51.088;6.572;2023-02-01T11:03:52;101432.88;;;6.01;76.79
48244;BME280;34053;51.088;6.572;2023-02-01T11:06:31;101427.66;;;5.99;75.68
48244;BME280;34053;51.088;6.572;2023-02-01T11:20:00;101418.19;;;6.23;75.66
48244;BME280;34053;51.088;6.572;2023-02-01T11:22:31;101417.31;;;6.28;75.75
48244;BME280;34053;51.088;6.572;2023-02-01T11:25:08;101421.66;;;6.33;74.95
48244;BME280;34053;51.088;6.572;2023-02-01T11:27:39;101412.13;;;6.39;74.85
48244;BME280;34053;51.088;6.572;2023-02-01T11:30:15;101406.91;;;6.41;75.14
48244;BME280;34053;51.088;6.572;2023-02-01T11:32:48;101413.00;;;6.41;74.72
48244;BME280;34053;51.088;6.572;2023-02-01T11:35:20;101408.66;;;6.43;74.04
48244;BME280;34053;51.088;6.572;2023-02-01T11:37:56;101414.72;;;6.44;73.96
48244;BME280;34053;51.088;6.572;2023-02-01T11:40:35;101393.88;;;6.42;74.12
48244;BME280;34053;51.088;6.572;2023-02-01T11:43:17;101385.22;;;6.48;74.19
48244;BME280;34053;51.088;6.572;2023-02-01T11:46:00;101395.63;;;6.46;73.81
48244;BME280;34053;51.088;6.572;2023-02-01T11:48:32;101368.66;;;6.49;73.58
48244;BME280;34053;51.088;6.572;2023-02-01T11:51:19;101370.44;;;6.47;73.24
48244;BME280;34053;51.088;6.572;2023-02-01T12:00:16;101378.25;;;6.53;73.68
48244;BME280;34053;51.088;6.572;2023-02-01T12:08:36;101367.81;;;6.64;71.60
48244;BME280;34053;51.088;6.572;2023-02-01T12:17:11;101357.38;;;6.69;71.96
48244;BME280;34053;51.088;6.572;2023-02-01T12:37:18;101349.56;;;6.78;70.91
48244;BME280;34053;51.088;6.572;2023-02-01T12:42:39;101337.38;;;6.80;70.28
48244;BME280;34053;51.088;6.572;2023-02-01T12:45:25;101344.34;;;6.78;70.65
48244;BME280;34053;51.088;6.572;2023-02-01T12:48:16;101342.59;;;6.77;70.25
48244;BME280;34053;51.088;6.572;2023-02-01T12:50:53;101338.25;;;6.79;70.78
48244;BME280;34053;51.088;6.572;2023-02-01T12:56:21;101333.06;;;6.73;69.92
48244;BME280;34053;51.088;6.572;2023-02-01T12:58:55;101318.25;;;6.75;71.02
48244;BME280;34053;51.088;6.572;2023-02-01T13:01:42;101319.97;;;6.82;70.48
48244;BME280;34053;51.088;6.572;2023-02-01T13:04:41;101309.56;;;6.76;70.78
48244;BME280;34053;51.088;6.572;2023-02-01T13:07:27;101311.28;;;6.78;70.57
48244;BME280;34053;51.088;6.572;2023-02-01T13:10:14;101313.88;;;6.78;70.22
48244;BME280;34053;51.088;6.572;2023-02-01T13:12:54;101303.47;;;6.77;70.09
48244;BME280;34053;51.088;6.572;2023-02-01T13:15:30;101304.34;;;6.79;70.38
48244;BME280;34053;51.088;6.572;2023-02-01T13:18:04;101308.69;;;6.75;70.53
48244;BME280;34053;51.088;6.572;2023-02-01T13:20:39;101302.59;;;6.81;71.18
48244;BME280;34053;51.088;6.572;2023-02-01T13:23:56;101300.00;;;6.78;71.42
48244;BME280;34053;51.088;6.572;2023-02-01T13:26:40;101297.38;;;6.75;72.28
48244;BME280;34053;51.088;6.572;2023-02-01T13:29:12;101290.44;;;6.74;71.87
48244;BME280;34053;51.088;6.572;2023-02-01T13:31:57;101299.13;;;6.79;71.92
48244;BME280;34053;51.088;6.572;2023-02-01T13:43:01;101295.63;;;6.89;71.11
48244;BME280;34053;51.088;6.572;2023-02-01T13:45:41;101304.31;;;6.81;70.57
48244;BME280;34053;51.088;6.572;2023-02-01T13:48:29;101297.38;;;6.81;70.62
48244;BME280;34053;51.088;6.572;2023-02-01T13:51:00;101304.31;;;6.87;70.53
48244;BME280;34053;51.088;6.572;2023-02-01T13:53:34;101300.84;;;6.83;70.75
48244;BME280;34053;51.088;6.572;2023-02-01T13:56:15;101300.00;;;6.86;70.36
48244;BME280;34053;51.088;6.572;2023-02-01T13:58:47;101298.25;;;6.85;70.48
48244;BME280;34053;51.088;6.572;2023-02-01T14:03:59;101292.16;;;6.86;70.44
48244;BME280;34053;51.088;6.572;2023-02-01T14:19:42;101311.25;;;6.96;70.17
48244;BME280;34053;51.088;6.572;2023-02-01T14:24:56;101300.81;;;6.96;70.20
48244;BME280;34053;51.088;6.572;2023-02-01T14:27:30;101312.13;;;6.95;70.15
48244;BME280;34053;51.088;6.572;2023-02-01T14:30:07;101320.81;;;6.98;70.16
48244;BME280;34053;51.088;6.572;2023-02-01T14:32:45;101314.75;;;6.98;70.38
48244;BME280;34053;51.088;6.572;2023-02-01T14:35:35;101319.06;;;6.99;69.88
48244;BME280;34053;51.088;6.572;2023-02-01T14:38:09;101320.81;;;6.98;70.05
48244;BME280;34053;51.088;6.572;2023-02-01T14:40:41;101313.84;;;7.05;70.02
48244;BME280;34053;51.088;6.572;2023-02-01T14:43:12;101334.72;;;7.02;70.21
48244;BME280;34053;51.088;6.572;2023-02-01T14:45:47;101328.63;;;7.03;70.53
48244;BME280;34053;51.088;6.572;2023-02-01T14:50:50;101325.13;;;7.07;70.07
48244;BME280;34053;51.088;6.572;2023-02-01T14:53:28;101328.59;;;7.12;70.29
48244;BME280;34053;51.088;6.572;2023-02-01T14:58:42;101331.25;;;7.06;70.35
48244;BME280;34053;51.088;6.572;2023-02-01T15:01:23;101336.44;;;7.04;70.29
48244;BME280;34053;51.088;6.572;2023-02-01T15:04:14;101339.03;;;7.09;70.19
48244;BME280;34053;51.088;6.572;2023-02-01T15:09:30;101341.66;;;7.09;69.76
48244;BME280;34053;51.088;6.572;2023-02-01T15:17:20;101356.44;;;7.05;70.13
48244;BME280;34053;51.088;6.572;2023-02-01T15:19:58;101346.88;;;7.09;70.02
48244;BME280;34053;51.088;6.572;2023-02-01T15:22:30;101351.22;;;7.05;70.38
48244;BME280;34053;51.088;6.572;2023-02-01T15:25:04;101348.63;;;7.13;70.49
48244;BME280;34053;51.088;6.572;2023-02-01T15:27:36;101332.13;;;7.05;70.11
48244;BME280;34053;51.088;6.572;2023-02-01T15:30:08;101344.28;;;7.12;69.85
48244;BME280;34053;51.088;6.572;2023-02-01T15:32:46;101350.34;;;7.03;69.96
48244;BME280;34053;51.088;6.572;2023-02-01T15:35:42;101349.50;;;7.07;69.79
48244;BME280;34053;51.088;6.572;2023-02-01T15:44:02;101353.84;;;7.05;69.93
48244;BME280;34053;51.088;6.572;2023-02-01T15:46:36;101351.22;;;7.07;69.71
48244;BME280;34053;51.088;6.572;2023-02-01T15:49:26;101361.63;;;7.16;70.30
48244;BME280;34053;51.088;6.572;2023-02-01T15:51:59;101361.66;;;7.19;70.01
48244;BME280;34053;51.088;6.572;2023-02-01T15:54:53;101366.03;;;7.09;70.38
48244;BME280;34053;51.088;6.572;2023-02-01T15:57:27;101364.25;;;7.12;70.24